createdAt,value
2023-09-06T00:00:12.868Z,15.10
2023-09-06T00:02:39.628Z,18.80
2023-09-06T00:05:06.685Z,19.25
2023-09-06T00:07:33.509Z,18.13
2023-09-06T00:10:00.430Z,19.50
2023-09-06T00:12:27.328Z,19.90
2023-09-06T00:14:56.182Z,18.88
2023-09-06T00:17:22.979Z,19.15
2023-09-06T00:19:49.740Z,19.65
2023-09-06T00:22:16.570Z,19.30
2023-09-06T00:24:43.454Z,19.92
2023-09-06T00:27:10.206Z,17.83
2023-09-06T00:29:36.996Z,18.65
2023-09-06T00:32:04.108Z,18.40
2023-09-06T00:34:32.716Z,17.08
2023-09-06T00:36:59.514Z,18.65
2023-09-06T00:39:29.406Z,18.75
2023-09-06T00:41:56.314Z,17.85
2023-09-06T00:44:24.187Z,20.15
2023-09-06T00:46:51.007Z,20.58
2023-09-06T00:49:17.828Z,19.77
2023-09-06T00:51:44.618Z,20.80
2023-09-06T00:54:11.473Z,21.08
2023-09-06T00:56:41.455Z,20.42
2023-09-06T00:59:11.783Z,20.77
2023-09-06T01:01:38.685Z,22.10
2023-09-06T01:04:05.780Z,21.90
2023-09-06T01:06:32.693Z,20.50
2023-09-06T01:08:59.923Z,21.13
2023-09-06T01:11:28.006Z,22.42
2023-09-06T01:13:56.188Z,20.55
2023-09-06T01:16:36.147Z,24.13
2023-09-06T01:19:03.093Z,21.42
2023-09-06T01:21:59.619Z,21.63
2023-09-06T01:24:26.796Z,23.05
2023-09-06T01:26:53.576Z,25.60
2023-09-06T01:29:20.366Z,21.42
2023-09-06T01:31:47.878Z,21.85
2023-09-06T01:34:14.804Z,25.27
2023-09-06T01:36:42.044Z,22.10
2023-09-06T01:39:11.575Z,25.08
2023-09-06T01:41:38.441Z,23.98
2023-09-06T01:44:05.531Z,22.38
2023-09-06T01:46:32.465Z,22.10
2023-09-06T01:49:01.142Z,22.83
2023-09-06T01:51:28.026Z,23.63
2023-09-06T01:53:54.794Z,25.15
2023-09-06T01:56:21.649Z,24.40
2023-09-06T01:58:48.534Z,23.95
2023-09-06T02:01:15.449Z,24.38
2023-09-06T02:03:42.619Z,24.60
2023-09-06T02:06:09.675Z,24.10
2023-09-06T02:08:36.915Z,22.20
2023-09-06T02:11:03.802Z,17.50
2023-09-06T02:13:30.565Z,13.38
2023-09-06T02:15:57.435Z,13.35
2023-09-06T02:18:27.293Z,11.80
2023-09-06T02:20:57.269Z,11.05
2023-09-06T02:23:24.162Z,10.25
2023-09-06T02:25:50.959Z,10.52
2023-09-06T02:28:18.685Z,9.05
2023-09-06T02:30:45.696Z,9.85
2023-09-06T02:33:15.551Z,10.55
2023-09-06T02:35:42.677Z,10.38
2023-09-06T02:38:10.106Z,10.35
2023-09-06T02:40:37.253Z,10.75
2023-09-06T02:43:05.668Z,10.70
2023-09-06T02:45:38.468Z,9.48
2023-09-06T02:48:14.479Z,9.07
2023-09-06T02:50:41.687Z,8.77
2023-09-06T02:53:21.095Z,10.23
2023-09-06T02:55:49.332Z,9.75
2023-09-06T02:58:19.680Z,9.98
2023-09-06T03:00:50.384Z,10.02
2023-09-06T03:03:17.572Z,10.75
2023-09-06T03:05:44.668Z,11.13
2023-09-06T03:08:13.221Z,10.18
2023-09-06T03:10:45.711Z,10.38
2023-09-06T03:13:12.731Z,11.07
2023-09-06T03:15:44.816Z,12.10
2023-09-06T03:18:12.091Z,11.07
2023-09-06T03:20:45.055Z,12.43
2023-09-06T03:23:20.697Z,12.20
2023-09-06T03:25:59.592Z,12.55
2023-09-06T03:28:27.747Z,12.32
2023-09-06T03:30:59.634Z,12.90
2023-09-06T03:33:27.749Z,13.00
2023-09-06T03:35:54.609Z,14.52
2023-09-06T03:38:26.420Z,13.95
2023-09-06T03:40:53.696Z,13.25
2023-09-06T03:43:31.929Z,14.02
2023-09-06T03:45:59.926Z,13.85
2023-09-06T03:48:29.004Z,13.38
2023-09-06T03:50:57.545Z,13.27
2023-09-06T03:53:27.744Z,13.73
2023-09-06T03:55:58.453Z,13.63
2023-09-06T03:58:26.598Z,14.32
2023-09-06T04:00:54.097Z,14.48
2023-09-06T04:03:21.628Z,13.25
2023-09-06T04:05:48.671Z,13.98
2023-09-06T04:08:19.263Z,13.35
2023-09-06T04:10:46.685Z,13.13
2023-09-06T04:13:14.526Z,12.48
2023-09-06T04:15:44.091Z,12.02
2023-09-06T04:18:11.846Z,11.95
2023-09-06T04:20:40.724Z,11.85
2023-09-06T04:23:08.910Z,12.85
2023-09-06T04:25:42.899Z,10.85
2023-09-06T04:28:10.698Z,10.27
2023-09-06T04:30:38.232Z,10.55
2023-09-06T04:33:06.806Z,9.35
2023-09-06T04:35:44.349Z,10.50
2023-09-06T04:38:19.896Z,10.52
2023-09-06T04:40:47.505Z,10.02
2023-09-06T04:43:15.462Z,9.80
2023-09-06T04:45:42.290Z,12.48
2023-09-06T04:48:13.639Z,10.63
2023-09-06T04:50:46.408Z,12.27
2023-09-06T04:53:13.785Z,13.43
2023-09-06T04:55:41.285Z,12.55
2023-09-06T04:58:12.308Z,11.73
2023-09-06T05:00:44.766Z,12.73
2023-09-06T05:03:18.701Z,12.93
2023-09-06T05:08:51.545Z,14.15
2023-09-06T05:11:18.310Z,12.75
2023-09-06T05:13:45.231Z,13.38
2023-09-06T05:16:12.051Z,12.70
2023-09-06T05:18:38.861Z,12.68
2023-09-06T05:21:06.197Z,13.45
2023-09-06T05:23:37.301Z,14.50
2023-09-06T05:26:04.654Z,13.93
2023-09-06T05:28:33.389Z,13.43
2023-09-06T05:31:02.387Z,13.43
2023-09-06T05:33:29.161Z,13.60
2023-09-06T05:35:55.899Z,12.55
2023-09-06T05:38:22.665Z,13.43
2023-09-06T05:40:51.611Z,12.60
2023-09-06T05:43:18.457Z,13.23
2023-09-06T05:45:45.212Z,12.15
2023-09-06T05:48:27.009Z,13.85
2023-09-06T05:50:53.963Z,12.65
2023-09-06T05:53:20.796Z,13.20
2023-09-06T05:55:50.991Z,12.43
2023-09-06T05:58:17.775Z,12.85
2023-09-06T06:00:45.148Z,13.40
2023-09-06T06:03:12.203Z,13.00
2023-09-06T06:05:39.978Z,12.73
2023-09-06T06:08:11.015Z,12.63
2023-09-06T06:10:38.367Z,14.15
2023-09-06T06:13:06.372Z,12.25
2023-09-06T06:15:33.272Z,12.20
2023-09-06T06:18:00.105Z,12.00
2023-09-06T06:20:38.482Z,12.93
2023-09-06T06:23:09.334Z,13.02
2023-09-06T06:25:37.089Z,15.85
2023-09-06T06:28:04.294Z,15.18
2023-09-06T06:30:31.393Z,12.82
2023-09-06T06:33:01.569Z,12.18
2023-09-06T06:35:28.991Z,14.50
2023-09-06T06:37:56.692Z,13.60
2023-09-06T06:40:25.586Z,14.20
2023-09-06T06:42:52.917Z,17.75
2023-09-06T06:45:19.908Z,17.70
2023-09-06T06:47:47.598Z,19.60
2023-09-06T06:50:15.063Z,20.30
2023-09-06T06:52:45.763Z,23.02
2023-09-06T06:55:12.986Z,23.67
2023-09-06T06:57:39.892Z,26.80
2023-09-06T07:00:08.742Z,25.55
2023-09-06T07:02:36.297Z,24.00
2023-09-06T07:05:03.703Z,22.92
2023-09-06T07:07:30.634Z,21.20
2023-09-06T07:09:57.452Z,19.85
2023-09-06T07:12:24.918Z,20.20
2023-09-06T07:14:53.187Z,21.38
2023-09-06T07:17:20.188Z,20.33
2023-09-06T07:19:47.088Z,20.90
2023-09-06T07:22:15.922Z,23.90
2023-09-06T07:24:45.811Z,21.90
2023-09-06T07:27:12.682Z,23.00
2023-09-06T07:29:40.738Z,20.60
2023-09-06T07:32:07.605Z,21.63
2023-09-06T07:34:34.520Z,21.52
2023-09-06T07:37:01.547Z,21.38
2023-09-06T07:39:28.480Z,22.33
2023-09-06T07:41:56.894Z,22.13
2023-09-06T07:44:24.031Z,22.38
2023-09-06T07:46:52.133Z,22.92
2023-09-06T07:49:20.053Z,20.80
2023-09-06T07:51:47.067Z,20.52
2023-09-06T07:54:13.894Z,22.40
2023-09-06T07:56:40.930Z,21.73
2023-09-06T07:59:10.316Z,20.48
2023-09-06T08:01:37.131Z,21.42
2023-09-06T08:04:04.338Z,20.35
2023-09-06T08:06:31.533Z,22.00
2023-09-06T08:08:59.709Z,21.35
2023-09-06T08:11:26.960Z,21.13
2023-09-06T08:13:54.172Z,20.67
2023-09-06T08:16:21.310Z,22.77
2023-09-06T08:18:48.678Z,20.38
2023-09-06T08:21:17.100Z,22.27
2023-09-06T08:23:45.052Z,22.23
2023-09-06T08:26:15.179Z,23.77
2023-09-06T08:28:42.343Z,22.75
2023-09-06T08:31:09.456Z,21.27
2023-09-06T08:33:36.647Z,22.67
2023-09-06T08:36:06.621Z,22.13
2023-09-06T08:38:34.449Z,23.48
2023-09-06T08:41:02.576Z,23.27
2023-09-06T08:43:36.429Z,23.13
2023-09-06T08:48:35.171Z,21.90
2023-09-06T08:51:02.388Z,23.23
2023-09-06T08:53:29.882Z,21.88
2023-09-06T08:56:01.546Z,20.83
2023-09-06T08:58:29.476Z,20.95
2023-09-06T09:00:57.160Z,20.13
2023-09-06T09:03:24.684Z,19.92
2023-09-06T09:05:51.901Z,21.13
2023-09-06T09:08:18.787Z,21.23
2023-09-06T09:10:45.712Z,19.48
2023-09-06T09:13:16.952Z,19.33
2023-09-06T09:15:44.034Z,18.35
2023-09-06T09:18:12.523Z,19.77
2023-09-06T09:20:42.709Z,18.25
2023-09-06T09:23:20.747Z,18.60
2023-09-06T09:25:53.560Z,18.05
2023-09-06T09:28:21.508Z,18.43
2023-09-06T09:30:49.588Z,17.05
2023-09-06T09:33:16.688Z,17.85
2023-09-06T09:35:50.714Z,17.33
2023-09-06T09:38:17.537Z,16.35
2023-09-06T09:43:14.607Z,16.73
2023-09-06T09:45:44.438Z,16.05
2023-09-06T09:48:12.228Z,15.60
2023-09-06T09:50:43.070Z,16.25
2023-09-06T09:53:34.524Z,14.38
2023-09-06T09:56:00.995Z,14.40
2023-09-06T09:58:28.603Z,13.60
2023-09-06T10:01:00.427Z,13.95
2023-09-06T10:03:29.462Z,13.43
2023-09-06T10:05:56.822Z,13.05
2023-09-06T10:08:26.750Z,12.15
2023-09-06T10:10:53.692Z,12.35
2023-09-06T10:13:20.825Z,11.38
2023-09-06T10:16:02.656Z,10.85
2023-09-06T10:18:33.398Z,10.32
2023-09-06T10:21:01.103Z,11.75
2023-09-06T10:23:33.039Z,10.68
2023-09-06T10:26:10.218Z,9.50
2023-09-06T10:28:51.004Z,9.38
2023-09-06T10:31:46.490Z,10.57
2023-09-06T11:10:17.432Z,9.55
2023-09-06T11:15:06.726Z,9.98
2023-09-06T11:30:43.072Z,7.50
2023-09-06T11:33:14.588Z,7.47
2023-09-06T11:35:43.793Z,7.40
2023-09-06T11:38:12.273Z,7.78
2023-09-06T11:40:42.845Z,7.03
2023-09-06T11:43:20.221Z,5.80
2023-09-06T11:45:49.811Z,5.82
2023-09-06T11:48:21.149Z,6.47
2023-09-06T11:50:51.342Z,4.97
2023-09-06T11:53:21.477Z,4.78
2023-09-06T11:55:50.690Z,5.07
2023-09-06T11:58:23.041Z,5.47
2023-09-06T12:00:51.757Z,6.07
2023-09-06T12:03:22.075Z,4.70
2023-09-06T12:05:51.416Z,4.60
2023-09-06T12:08:23.433Z,4.70
2023-09-06T12:10:55.787Z,4.90
2023-09-06T12:13:33.359Z,4.47
2023-09-06T12:16:00.866Z,4.22
2023-09-06T12:18:34.390Z,3.58
2023-09-06T12:21:01.929Z,4.35
2023-09-06T12:23:35.656Z,4.65
2023-09-06T12:26:04.478Z,3.85
2023-09-06T12:28:32.921Z,4.70
2023-09-06T12:31:16.527Z,3.58
2023-09-06T12:33:46.956Z,3.97
2023-09-06T12:36:15.225Z,3.70
2023-09-06T12:38:44.857Z,4.82
2023-09-06T12:41:13.563Z,3.75
2023-09-06T12:43:41.047Z,3.63
2023-09-06T12:46:08.482Z,3.75
2023-09-06T12:48:38.660Z,4.63
2023-09-06T12:51:10.750Z,4.00
2023-09-06T12:53:40.270Z,3.55
2023-09-06T12:56:10.297Z,3.92
2023-09-06T12:58:40.527Z,3.20
2023-09-06T13:01:12.308Z,3.33
2023-09-06T13:03:45.322Z,2.92
2023-09-06T13:06:12.810Z,3.37
2023-09-06T13:08:41.075Z,3.63
2023-09-06T13:11:08.433Z,3.55
2023-09-06T13:13:35.965Z,2.83
2023-09-06T13:16:02.887Z,3.30
2023-09-06T13:18:30.665Z,3.70
2023-09-06T13:20:58.793Z,2.83
2023-09-06T13:23:25.672Z,2.90
2023-09-06T13:25:52.694Z,4.32
2023-09-06T13:28:19.677Z,3.35
2023-09-06T13:30:48.700Z,3.30
2023-09-06T13:33:15.566Z,3.40
2023-09-06T13:35:43.593Z,3.88
2023-09-06T13:38:10.487Z,3.15
2023-09-06T13:40:37.510Z,3.40
2023-09-06T13:43:04.667Z,3.45
2023-09-06T13:45:31.654Z,2.95
2023-09-06T13:47:58.698Z,3.15
2023-09-06T13:50:25.729Z,3.40
2023-09-06T13:52:52.730Z,3.50
2023-09-06T13:55:22.393Z,3.80
2023-09-06T13:57:49.294Z,3.20
2023-09-06T14:00:17.689Z,3.45
2023-09-06T14:02:44.771Z,3.05
2023-09-06T14:05:11.891Z,3.63
2023-09-06T14:07:38.842Z,3.83
2023-09-06T14:10:05.794Z,3.92
2023-09-06T14:12:32.670Z,6.68
2023-09-06T14:14:59.875Z,3.10
2023-09-06T14:17:26.915Z,3.28
2023-09-06T14:19:53.839Z,3.50
2023-09-06T14:22:20.908Z,2.90
2023-09-06T14:24:48.044Z,3.30
2023-09-06T14:27:16.707Z,3.58
2023-09-06T14:29:43.704Z,2.63
2023-09-06T14:32:10.641Z,3.50
2023-09-06T14:34:37.505Z,3.08
2023-09-06T14:37:04.905Z,2.75
2023-09-06T14:39:33.766Z,3.80
2023-09-06T14:42:00.668Z,3.00
2023-09-06T14:44:27.552Z,3.25
2023-09-06T14:46:57.626Z,3.63
2023-09-06T14:49:24.628Z,3.20
2023-09-06T14:51:51.606Z,2.92
2023-09-06T14:54:18.635Z,3.53
2023-09-06T14:56:45.687Z,4.30
2023-09-06T14:59:12.724Z,3.00
2023-09-06T15:01:39.970Z,3.08
2023-09-06T15:04:07.472Z,3.40
2023-09-06T15:06:52.577Z,3.72
2023-09-06T15:09:22.127Z,3.78
2023-09-06T15:11:49.906Z,3.45
2023-09-06T15:14:16.952Z,3.15
2023-09-06T15:16:43.821Z,3.63
2023-09-06T15:19:11.287Z,3.65
2023-09-06T15:21:41.033Z,3.58
2023-09-06T15:24:08.683Z,3.60
2023-09-06T15:26:37.719Z,4.13
2023-09-06T15:29:04.653Z,3.65
2023-09-06T15:31:32.417Z,3.50
2023-09-06T15:33:59.461Z,3.15
2023-09-06T15:36:30.870Z,3.35
2023-09-06T15:38:57.815Z,4.13
2023-09-06T15:41:24.768Z,4.03
2023-09-06T15:43:51.640Z,4.20
2023-09-06T15:46:21.890Z,3.25
2023-09-06T15:48:51.625Z,3.28
2023-09-06T15:51:18.652Z,3.75
2023-09-06T15:53:45.666Z,3.55
2023-09-06T15:56:12.714Z,4.57
2023-09-06T15:58:42.770Z,3.33
2023-09-06T16:01:09.782Z,3.85
2023-09-06T16:03:36.804Z,3.33
2023-09-06T16:06:03.810Z,3.47
2023-09-06T16:08:30.955Z,3.25
2023-09-06T16:10:58.257Z,3.30
2023-09-06T16:13:25.363Z,3.72
2023-09-06T16:15:52.245Z,3.65
2023-09-06T16:18:19.409Z,4.95
2023-09-06T16:20:46.285Z,3.00
2023-09-06T16:23:25.047Z,3.70
2023-09-06T16:25:51.978Z,3.35
2023-09-06T16:29:37.017Z,3.53
2023-09-06T16:31:39.214Z,3.25
2023-09-06T16:34:12.058Z,4.20
2023-09-06T16:36:39.905Z,3.17
2023-09-06T16:39:15.783Z,3.63
2023-09-06T16:41:56.966Z,2.80
2023-09-06T16:44:24.371Z,2.92
2023-09-06T16:47:09.377Z,2.88
2023-09-06T16:49:36.675Z,2.85
2023-09-06T16:55:40.787Z,3.70
2023-09-06T16:58:10.692Z,3.28
2023-09-06T16:58:41.260Z,2.60
2023-09-06T17:01:47.467Z,3.40
2023-09-06T17:04:16.814Z,3.22
2023-09-06T17:07:21.457Z,2.88
2023-09-06T17:10:29.594Z,3.53
2023-09-06T17:13:17.799Z,3.10
2023-09-06T17:16:34.218Z,3.22
2023-09-06T17:22:40.686Z,2.80
2023-09-06T17:25:11.170Z,3.28
2023-09-06T17:27:38.335Z,3.05
2023-09-06T17:30:43.923Z,3.75
2023-09-06T17:36:21.832Z,3.28
2023-09-06T17:38:49.093Z,3.28
2023-09-06T17:41:16.617Z,2.65
2023-09-06T17:43:46.910Z,2.58
2023-09-06T17:46:13.967Z,3.40
2023-09-06T17:48:45.783Z,3.45
2023-09-06T17:51:13.009Z,3.25
2023-09-06T17:53:41.330Z,3.47
2023-09-06T17:56:16.354Z,3.33
2023-09-06T17:58:50.682Z,3.08
2023-09-06T18:01:20.530Z,4.00
2023-09-06T18:03:52.863Z,3.33
2023-09-06T18:06:27.243Z,3.40
2023-09-06T18:09:08.201Z,3.28
2023-09-06T18:11:36.129Z,3.50
2023-09-06T18:14:09.072Z,3.17
2023-09-06T18:16:37.449Z,3.83
2023-09-06T18:19:04.609Z,3.15
2023-09-06T18:21:31.792Z,3.17
2023-09-06T18:24:04.362Z,3.13
2023-09-06T18:26:31.342Z,3.35
2023-09-06T18:28:58.384Z,3.67
2023-09-06T18:31:25.690Z,3.63
2023-09-06T18:33:52.629Z,3.03
2023-09-06T18:36:21.899Z,3.78
2023-09-06T18:38:49.448Z,3.10
2023-09-06T18:41:16.402Z,3.58
2023-09-06T18:43:43.383Z,4.05
2023-09-06T18:46:10.421Z,3.90
2023-09-06T18:48:39.609Z,3.45
2023-09-06T18:51:09.973Z,3.42
2023-09-06T18:53:37.860Z,3.55
2023-09-06T18:56:05.826Z,3.50
2023-09-06T18:58:34.433Z,3.88
2023-09-06T19:01:01.747Z,3.70
2023-09-06T19:03:28.979Z,3.80
2023-09-06T19:05:58.703Z,4.03
2023-09-06T19:08:25.599Z,3.88
2023-09-06T19:10:52.707Z,3.60
2023-09-06T19:13:22.624Z,4.20
2023-09-06T19:15:52.368Z,4.35
2023-09-06T19:18:19.611Z,4.53
2023-09-06T19:20:46.597Z,4.35
2023-09-06T19:23:22.029Z,4.28
2023-09-06T19:25:55.571Z,4.32
2023-09-06T19:28:23.585Z,4.70
2023-09-06T19:30:57.983Z,4.55
2023-09-06T19:33:25.874Z,5.25
2023-09-06T19:35:53.629Z,5.60
2023-09-06T19:38:23.444Z,4.75
2023-09-06T19:40:53.307Z,5.03
2023-09-06T19:43:46.721Z,5.03
2023-09-06T19:46:13.810Z,5.47
2023-09-06T19:48:54.611Z,6.10
2023-09-06T19:51:28.981Z,5.68
2023-09-06T19:53:56.073Z,6.10
2023-09-06T19:56:24.206Z,6.07
2023-09-06T19:58:54.498Z,5.68
2023-09-06T20:01:21.829Z,6.50
2023-09-06T20:03:49.052Z,6.85
2023-09-06T20:06:21.910Z,8.15
2023-09-06T20:08:48.901Z,7.70
2023-09-06T20:11:25.467Z,7.63
2023-09-06T20:13:53.701Z,6.97
2023-09-06T20:16:21.444Z,7.07
2023-09-06T20:18:50.592Z,7.57
2023-09-06T20:21:17.542Z,6.72
2023-09-06T20:23:46.324Z,6.78
2023-09-06T20:26:19.323Z,7.07
2023-09-06T20:28:55.287Z,6.97
2023-09-06T20:31:22.684Z,8.10
2023-09-06T20:33:49.650Z,8.90
2023-09-06T20:36:16.742Z,8.18
2023-09-06T20:38:46.706Z,7.60
2023-09-06T20:41:14.171Z,7.95
2023-09-06T20:43:44.020Z,9.70
2023-09-06T20:46:33.430Z,10.43
2023-09-06T20:49:00.894Z,8.90
2023-09-06T20:51:28.373Z,9.85
2023-09-06T20:53:55.413Z,12.02
2023-09-06T20:56:22.161Z,10.18
2023-09-06T20:58:51.825Z,11.75
2023-09-06T21:01:25.032Z,10.85
2023-09-06T21:03:53.037Z,11.43
2023-09-06T21:06:21.215Z,11.05
2023-09-06T21:08:48.392Z,11.25
2023-09-06T21:11:15.540Z,11.05
2023-09-06T21:13:42.572Z,12.65
2023-09-06T21:16:21.165Z,14.30
2023-09-06T21:18:48.488Z,16.75
2023-09-06T21:21:18.041Z,15.05
2023-09-06T21:23:47.708Z,12.30
2023-09-06T21:26:17.629Z,12.95
2023-09-06T21:28:55.125Z,14.77
2023-09-06T21:31:33.588Z,16.73
2023-09-06T21:34:00.789Z,20.75
2023-09-06T21:36:30.890Z,21.65
2023-09-06T21:39:00.686Z,23.02
2023-09-06T21:41:30.194Z,26.67
2023-09-06T21:44:04.517Z,24.15
2023-09-06T21:46:31.532Z,24.55
2023-09-06T21:48:58.438Z,27.00
2023-09-06T21:51:28.533Z,29.60
2023-09-06T21:53:58.772Z,25.52
2023-09-06T21:56:33.140Z,27.50
2023-09-06T21:59:16.477Z,29.23
2023-09-06T22:01:53.707Z,32.45
2023-09-06T22:04:23.317Z,37.33
2023-09-06T22:06:52.893Z,41.55
2023-09-06T22:09:19.767Z,40.75
2023-09-06T22:11:52.590Z,43.95
2023-09-06T22:14:19.568Z,42.58
2023-09-06T22:16:49.111Z,43.65
2023-09-06T22:19:19.237Z,43.78
2023-09-06T22:21:49.287Z,40.58
2023-09-06T22:24:24.827Z,42.78
2023-09-06T22:26:51.738Z,41.35
2023-09-06T22:29:21.402Z,42.15
2023-09-06T22:31:54.868Z,41.75
2023-09-06T22:34:22.689Z,45.53
2023-09-06T22:36:52.956Z,47.30
2023-09-06T22:39:19.999Z,43.03
2023-09-06T22:41:46.900Z,47.17
2023-09-06T22:44:16.755Z,52.75
2023-09-06T22:46:59.169Z,55.08
2023-09-06T22:49:55.972Z,56.55
2023-09-06T22:52:32.397Z,56.47
2023-09-06T22:54:59.385Z,51.85
2023-09-06T22:57:26.599Z,55.67
2023-09-06T22:59:56.789Z,56.33
2023-09-06T23:02:34.955Z,61.88
2023-09-06T23:05:02.091Z,60.95
2023-09-06T23:07:35.555Z,62.90
2023-09-06T23:10:06.271Z,61.92
2023-09-06T23:12:33.909Z,60.20
2023-09-06T23:15:12.430Z,64.88
2023-09-06T23:17:43.325Z,64.57
2023-09-06T23:20:20.414Z,68.35
2023-09-06T23:22:54.280Z,66.97
2023-09-06T23:28:01.784Z,64.43
2023-09-06T23:30:34.583Z,65.10
2023-09-06T23:33:08.184Z,67.85
2023-09-06T23:35:37.612Z,65.95
2023-09-06T23:38:08.457Z,65.85
2023-09-06T23:40:36.051Z,63.30
2023-09-06T23:43:11.280Z,68.03
2023-09-06T23:45:56.141Z,68.53
2023-09-06T23:48:24.512Z,68.15
2023-09-06T23:50:53.236Z,72.22
2023-09-06T23:53:21.214Z,68.30
2023-09-06T23:55:48.229Z,70.63
2023-09-06T23:58:15.069Z,67.60
